sensor_id;sensor_type;location;lat;lon;timestamp;P1;durP1;ratioP1;P2;durP2;ratioP2
42384;SDS011;28042;43.986;22.860;2023-06-19T00:02:14;6.90;;;4.85;;
42384;SDS011;28042;43.986;22.860;2023-06-19T00:04:41;14.30;;;5.90;;
42384;SDS011;28042;43.986;22.860;2023-06-19T00:07:06;6.77;;;4.80;;
42384;SDS011;28042;43.986;22.860;2023-06-19T00:09:32;8.05;;;4.57;;
42384;SDS011;28042;43.986;22.860;2023-06-19T00:11:58;10.73;;;4.97;;
42384;SDS011;28042;43.986;22.860;2023-06-19T00:14:24;13.75;;;5.88;;
42384;SDS011;28042;43.986;22.860;2023-06-19T00:16:50;11.35;;;4.80;;
42384;SDS011;28042;43.986;22.860;2023-06-19T00:19:16;8.05;;;5.20;;
42384;SDS011;28042;43.986;22.860;2023-06-19T00:21:43;8.02;;;4.95;;
42384;SDS011;28042;43.986;22.860;2023-06-19T00:24:09;8.32;;;4.30;;
42384;SDS011;28042;43.986;22.860;2023-06-19T00:26:36;8.55;;;5.07;;
42384;SDS011;28042;43.986;22.860;2023-06-19T00:29:01;9.00;;;4.97;;
42384;SDS011;28042;43.986;22.860;2023-06-19T00:31:27;7.35;;;5.35;;
42384;SDS011;28042;43.986;22.860;2023-06-19T00:33:53;7.18;;;5.13;;
42384;SDS011;28042;43.986;22.860;2023-06-19T00:36:19;8.57;;;5.50;;
42384;SDS011;28042;43.986;22.860;2023-06-19T00:38:48;8.38;;;5.30;;
42384;SDS011;28042;43.986;22.860;2023-06-19T00:41:15;9.95;;;5.40;;
42384;SDS011;28042;43.986;22.860;2023-06-19T00:43:41;7.82;;;5.38;;
42384;SDS011;28042;43.986;22.860;2023-06-19T00:46:07;7.60;;;5.15;;
42384;SDS011;28042;43.986;22.860;2023-06-19T00:48:33;9.93;;;5.15;;
42384;SDS011;28042;43.986;22.860;2023-06-19T00:50:59;7.28;;;5.20;;
42384;SDS011;28042;43.986;22.860;2023-06-19T00:53:25;10.27;;;5.30;;
42384;SDS011;28042;43.986;22.860;2023-06-19T00:55:52;8.40;;;5.20;;
42384;SDS011;28042;43.986;22.860;2023-06-19T01:00:46;8.90;;;5.20;;
42384;SDS011;28042;43.986;22.860;2023-06-19T01:03:12;10.65;;;5.50;;
42384;SDS011;28042;43.986;22.860;2023-06-19T01:05:38;7.10;;;4.22;;
42384;SDS011;28042;43.986;22.860;2023-06-19T01:10:44;7.22;;;4.53;;
42384;SDS011;28042;43.986;22.860;2023-06-19T01:16:00;29.70;;;6.53;;
42384;SDS011;28042;43.986;22.860;2023-06-19T01:18:28;9.40;;;5.15;;
42384;SDS011;28042;43.986;22.860;2023-06-19T01:20:57;7.38;;;4.80;;
42384;SDS011;28042;43.986;22.860;2023-06-19T01:23:33;6.00;;;4.87;;
42384;SDS011;28042;43.986;22.860;2023-06-19T01:25:59;6.18;;;4.55;;
42384;SDS011;28042;43.986;22.860;2023-06-19T01:28:24;8.95;;;5.07;;
42384;SDS011;28042;43.986;22.860;2023-06-19T01:30:51;11.03;;;4.87;;
42384;SDS011;28042;43.986;22.860;2023-06-19T01:33:24;14.88;;;5.50;;
42384;SDS011;28042;43.986;22.860;2023-06-19T01:35:52;8.05;;;4.88;;
42384;SDS011;28042;43.986;22.860;2023-06-19T01:38:21;11.13;;;4.93;;
42384;SDS011;28042;43.986;22.860;2023-06-19T01:40:50;8.55;;;4.80;;
42384;SDS011;28042;43.986;22.860;2023-06-19T01:43:18;10.27;;;4.82;;
42384;SDS011;28042;43.986;22.860;2023-06-19T01:45:44;10.85;;;5.15;;
42384;SDS011;28042;43.986;22.860;2023-06-19T01:48:10;8.07;;;4.50;;
42384;SDS011;28042;43.986;22.860;2023-06-19T01:50:36;7.25;;;4.07;;
42384;SDS011;28042;43.986;22.860;2023-06-19T01:53:01;10.73;;;5.32;;
42384;SDS011;28042;43.986;22.860;2023-06-19T01:55:27;7.10;;;4.25;;
42384;SDS011;28042;43.986;22.860;2023-06-19T01:57:52;7.45;;;4.80;;
42384;SDS011;28042;43.986;22.860;2023-06-19T02:00:18;10.18;;;4.68;;
42384;SDS011;28042;43.986;22.860;2023-06-19T02:02:43;5.70;;;4.45;;
42384;SDS011;28042;43.986;22.860;2023-06-19T02:05:09;6.72;;;4.80;;
42384;SDS011;28042;43.986;22.860;2023-06-19T02:07:35;10.52;;;4.65;;
42384;SDS011;28042;43.986;22.860;2023-06-19T02:10:00;9.05;;;5.05;;
42384;SDS011;28042;43.986;22.860;2023-06-19T02:12:26;6.55;;;4.90;;
42384;SDS011;28042;43.986;22.860;2023-06-19T02:14:51;7.18;;;5.00;;
42384;SDS011;28042;43.986;22.860;2023-06-19T02:17:17;10.27;;;4.57;;
42384;SDS011;28042;43.986;22.860;2023-06-19T02:19:42;7.15;;;4.50;;
42384;SDS011;28042;43.986;22.860;2023-06-19T02:22:08;7.07;;;5.07;;
42384;SDS011;28042;43.986;22.860;2023-06-19T02:24:33;6.72;;;4.85;;
42384;SDS011;28042;43.986;22.860;2023-06-19T02:26:59;8.57;;;5.10;;
42384;SDS011;28042;43.986;22.860;2023-06-19T02:29:25;7.13;;;4.88;;
42384;SDS011;28042;43.986;22.860;2023-06-19T02:31:51;7.90;;;5.05;;
42384;SDS011;28042;43.986;22.860;2023-06-19T02:34:17;6.32;;;4.78;;
42384;SDS011;28042;43.986;22.860;2023-06-19T02:36:42;9.38;;;4.63;;
42384;SDS011;28042;43.986;22.860;2023-06-19T02:39:08;6.15;;;5.32;;
42384;SDS011;28042;43.986;22.860;2023-06-19T02:41:34;5.68;;;4.50;;
42384;SDS011;28042;43.986;22.860;2023-06-19T02:44:00;7.63;;;4.68;;
42384;SDS011;28042;43.986;22.860;2023-06-19T02:46:26;11.77;;;5.28;;
42384;SDS011;28042;43.986;22.860;2023-06-19T02:48:51;12.10;;;5.55;;
42384;SDS011;28042;43.986;22.860;2023-06-19T02:51:17;8.55;;;5.25;;
42384;SDS011;28042;43.986;22.860;2023-06-19T02:53:42;11.63;;;5.03;;
42384;SDS011;28042;43.986;22.860;2023-06-19T02:56:11;14.50;;;5.35;;
42384;SDS011;28042;43.986;22.860;2023-06-19T02:58:37;10.68;;;5.78;;
42384;SDS011;28042;43.986;22.860;2023-06-19T03:01:03;14.55;;;6.05;;
42384;SDS011;28042;43.986;22.860;2023-06-19T03:03:32;10.13;;;5.72;;
42384;SDS011;28042;43.986;22.860;2023-06-19T03:06:02;11.32;;;5.93;;
42384;SDS011;28042;43.986;22.860;2023-06-19T03:08:32;11.50;;;6.15;;
42384;SDS011;28042;43.986;22.860;2023-06-19T03:11:01;11.52;;;5.85;;
42384;SDS011;28042;43.986;22.860;2023-06-19T03:13:29;11.80;;;4.63;;
42384;SDS011;28042;43.986;22.860;2023-06-19T03:15:57;12.20;;;5.70;;
42384;SDS011;28042;43.986;22.860;2023-06-19T03:18:22;9.90;;;5.10;;
42384;SDS011;28042;43.986;22.860;2023-06-19T03:20:48;7.47;;;5.20;;
42384;SDS011;28042;43.986;22.860;2023-06-19T03:23:13;6.75;;;4.78;;
42384;SDS011;28042;43.986;22.860;2023-06-19T03:25:38;11.50;;;5.65;;
42384;SDS011;28042;43.986;22.860;2023-06-19T03:28:08;9.93;;;5.50;;
42384;SDS011;28042;43.986;22.860;2023-06-19T03:30:33;8.82;;;5.80;;
42384;SDS011;28042;43.986;22.860;2023-06-19T03:32:59;13.57;;;5.65;;
42384;SDS011;28042;43.986;22.860;2023-06-19T03:35:24;12.32;;;6.60;;
42384;SDS011;28042;43.986;22.860;2023-06-19T03:37:49;8.90;;;5.32;;
42384;SDS011;28042;43.986;22.860;2023-06-19T03:40:15;8.80;;;4.75;;
42384;SDS011;28042;43.986;22.860;2023-06-19T03:42:40;10.18;;;4.85;;
42384;SDS011;28042;43.986;22.860;2023-06-19T03:45:06;7.25;;;4.57;;
42384;SDS011;28042;43.986;22.860;2023-06-19T03:47:32;9.88;;;4.80;;
42384;SDS011;28042;43.986;22.860;2023-06-19T03:49:57;11.63;;;4.45;;
42384;SDS011;28042;43.986;22.860;2023-06-19T03:52:23;7.72;;;4.05;;
42384;SDS011;28042;43.986;22.860;2023-06-19T03:54:48;7.95;;;4.10;;
42384;SDS011;28042;43.986;22.860;2023-06-19T03:57:14;9.73;;;4.35;;
42384;SDS011;28042;43.986;22.860;2023-06-19T03:59:40;6.45;;;3.70;;
42384;SDS011;28042;43.986;22.860;2023-06-19T04:02:05;9.23;;;4.18;;
42384;SDS011;28042;43.986;22.860;2023-06-19T04:04:31;7.85;;;4.60;;
42384;SDS011;28042;43.986;22.860;2023-06-19T04:06:56;20.63;;;4.90;;
42384;SDS011;28042;43.986;22.860;2023-06-19T04:09:24;11.10;;;5.38;;
42384;SDS011;28042;43.986;22.860;2023-06-19T04:11:49;8.15;;;6.05;;
42384;SDS011;28042;43.986;22.860;2023-06-19T04:14:15;16.77;;;5.07;;
42384;SDS011;28042;43.986;22.860;2023-06-19T04:16:40;8.50;;;4.35;;
42384;SDS011;28042;43.986;22.860;2023-06-19T04:19:06;13.13;;;4.53;;
42384;SDS011;28042;43.986;22.860;2023-06-19T04:21:31;8.30;;;3.90;;
42384;SDS011;28042;43.986;22.860;2023-06-19T04:23:57;9.20;;;4.00;;
42384;SDS011;28042;43.986;22.860;2023-06-19T04:26:22;8.48;;;4.30;;
42384;SDS011;28042;43.986;22.860;2023-06-19T04:28:49;9.38;;;4.38;;
42384;SDS011;28042;43.986;22.860;2023-06-19T04:31:15;18.48;;;5.00;;
42384;SDS011;28042;43.986;22.860;2023-06-19T04:33:43;6.45;;;4.00;;
42384;SDS011;28042;43.986;22.860;2023-06-19T04:36:10;11.27;;;4.30;;
42384;SDS011;28042;43.986;22.860;2023-06-19T04:38:35;11.98;;;4.30;;
42384;SDS011;28042;43.986;22.860;2023-06-19T04:41:01;15.40;;;3.83;;
42384;SDS011;28042;43.986;22.860;2023-06-19T04:43:26;7.50;;;4.45;;
42384;SDS011;28042;43.986;22.860;2023-06-19T04:45:51;10.15;;;3.97;;
42384;SDS011;28042;43.986;22.860;2023-06-19T04:48:17;10.50;;;4.25;;
42384;SDS011;28042;43.986;22.860;2023-06-19T04:50:43;23.75;;;4.50;;
42384;SDS011;28042;43.986;22.860;2023-06-19T04:53:08;9.93;;;3.90;;
42384;SDS011;28042;43.986;22.860;2023-06-19T04:55:33;11.85;;;4.03;;
42384;SDS011;28042;43.986;22.860;2023-06-19T04:57:59;9.55;;;3.88;;
42384;SDS011;28042;43.986;22.860;2023-06-19T05:00:24;12.93;;;3.83;;
42384;SDS011;28042;43.986;22.860;2023-06-19T05:02:50;8.52;;;4.10;;
42384;SDS011;28042;43.986;22.860;2023-06-19T05:05:16;8.13;;;4.10;;
42384;SDS011;28042;43.986;22.860;2023-06-19T05:07:42;11.27;;;4.20;;
42384;SDS011;28042;43.986;22.860;2023-06-19T05:10:07;13.18;;;4.25;;
42384;SDS011;28042;43.986;22.860;2023-06-19T05:12:36;9.85;;;4.05;;
42384;SDS011;28042;43.986;22.860;2023-06-19T05:15:02;5.97;;;3.70;;
42384;SDS011;28042;43.986;22.860;2023-06-19T05:17:28;8.43;;;3.38;;
42384;SDS011;28042;43.986;22.860;2023-06-19T05:19:54;8.82;;;4.00;;
42384;SDS011;28042;43.986;22.860;2023-06-19T05:22:19;8.43;;;3.90;;
42384;SDS011;28042;43.986;22.860;2023-06-19T05:24:46;15.82;;;4.78;;
42384;SDS011;28042;43.986;22.860;2023-06-19T05:27:12;9.70;;;3.38;;
42384;SDS011;28042;43.986;22.860;2023-06-19T05:29:38;8.95;;;4.00;;
42384;SDS011;28042;43.986;22.860;2023-06-19T05:32:03;7.57;;;3.67;;
42384;SDS011;28042;43.986;22.860;2023-06-19T05:34:29;9.27;;;3.92;;
42384;SDS011;28042;43.986;22.860;2023-06-19T05:36:54;8.40;;;3.65;;
42384;SDS011;28042;43.986;22.860;2023-06-19T05:39:20;9.55;;;3.58;;
42384;SDS011;28042;43.986;22.860;2023-06-19T05:41:45;12.02;;;4.15;;
42384;SDS011;28042;43.986;22.860;2023-06-19T05:44:11;8.88;;;3.85;;
42384;SDS011;28042;43.986;22.860;2023-06-19T05:46:40;6.05;;;3.17;;
42384;SDS011;28042;43.986;22.860;2023-06-19T05:49:06;7.63;;;3.55;;
42384;SDS011;28042;43.986;22.860;2023-06-19T05:51:32;8.18;;;3.20;;
42384;SDS011;28042;43.986;22.860;2023-06-19T05:53:57;6.00;;;3.70;;
42384;SDS011;28042;43.986;22.860;2023-06-19T05:56:28;8.73;;;3.72;;
42384;SDS011;28042;43.986;22.860;2023-06-19T05:58:58;4.03;;;2.85;;
42384;SDS011;28042;43.986;22.860;2023-06-19T06:01:23;7.32;;;3.80;;
42384;SDS011;28042;43.986;22.860;2023-06-19T06:03:50;6.95;;;3.58;;
42384;SDS011;28042;43.986;22.860;2023-06-19T06:06:15;6.75;;;3.45;;
42384;SDS011;28042;43.986;22.860;2023-06-19T06:08:41;7.70;;;3.83;;
42384;SDS011;28042;43.986;22.860;2023-06-19T06:11:06;5.50;;;3.10;;
42384;SDS011;28042;43.986;22.860;2023-06-19T06:13:32;10.77;;;3.25;;
42384;SDS011;28042;43.986;22.860;2023-06-19T06:15:57;6.25;;;3.25;;
42384;SDS011;28042;43.986;22.860;2023-06-19T06:18:23;5.47;;;3.15;;
42384;SDS011;28042;43.986;22.860;2023-06-19T06:20:48;13.23;;;3.97;;
42384;SDS011;28042;43.986;22.860;2023-06-19T06:23:14;7.47;;;3.90;;
42384;SDS011;28042;43.986;22.860;2023-06-19T06:25:40;10.45;;;3.67;;
42384;SDS011;28042;43.986;22.860;2023-06-19T06:28:05;10.90;;;3.40;;
42384;SDS011;28042;43.986;22.860;2023-06-19T06:30:31;7.05;;;3.60;;
42384;SDS011;28042;43.986;22.860;2023-06-19T06:32:56;4.53;;;3.03;;
42384;SDS011;28042;43.986;22.860;2023-06-19T06:35:23;15.07;;;4.35;;
42384;SDS011;28042;43.986;22.860;2023-06-19T06:37:48;8.35;;;4.03;;
42384;SDS011;28042;43.986;22.860;2023-06-19T06:40:15;5.47;;;3.55;;
42384;SDS011;28042;43.986;22.860;2023-06-19T06:42:40;14.10;;;4.43;;
42384;SDS011;28042;43.986;22.860;2023-06-19T06:45:06;12.05;;;4.00;;
42384;SDS011;28042;43.986;22.860;2023-06-19T06:47:32;6.22;;;3.53;;
42384;SDS011;28042;43.986;22.860;2023-06-19T06:49:59;14.50;;;3.90;;
42384;SDS011;28042;43.986;22.860;2023-06-19T06:52:25;9.00;;;3.78;;
42384;SDS011;28042;43.986;22.860;2023-06-19T06:54:50;6.53;;;3.63;;
42384;SDS011;28042;43.986;22.860;2023-06-19T06:57:16;4.97;;;3.28;;
42384;SDS011;28042;43.986;22.860;2023-06-19T06:59:42;7.00;;;3.67;;
42384;SDS011;28042;43.986;22.860;2023-06-19T07:02:07;11.65;;;4.22;;
42384;SDS011;28042;43.986;22.860;2023-06-19T07:04:33;9.77;;;4.10;;
42384;SDS011;28042;43.986;22.860;2023-06-19T07:06:58;6.35;;;3.30;;
42384;SDS011;28042;43.986;22.860;2023-06-19T07:09:24;6.07;;;3.63;;
42384;SDS011;28042;43.986;22.860;2023-06-19T07:11:49;5.45;;;3.30;;
42384;SDS011;28042;43.986;22.860;2023-06-19T07:14:15;7.28;;;3.95;;
42384;SDS011;28042;43.986;22.860;2023-06-19T07:16:43;9.10;;;3.47;;
42384;SDS011;28042;43.986;22.860;2023-06-19T07:19:11;6.80;;;3.60;;
42384;SDS011;28042;43.986;22.860;2023-06-19T07:21:37;7.13;;;3.50;;
42384;SDS011;28042;43.986;22.860;2023-06-19T07:24:04;8.68;;;2.95;;
42384;SDS011;28042;43.986;22.860;2023-06-19T07:26:30;6.70;;;3.50;;
42384;SDS011;28042;43.986;22.860;2023-06-19T07:28:56;4.30;;;3.47;;
42384;SDS011;28042;43.986;22.860;2023-06-19T07:31:22;11.98;;;3.78;;
42384;SDS011;28042;43.986;22.860;2023-06-19T07:33:47;9.85;;;4.10;;
42384;SDS011;28042;43.986;22.860;2023-06-19T07:36:12;27.00;;;5.90;;
42384;SDS011;28042;43.986;22.860;2023-06-19T07:38:39;9.90;;;4.43;;
42384;SDS011;28042;43.986;22.860;2023-06-19T07:41:05;3.60;;;2.93;;
42384;SDS011;28042;43.986;22.860;2023-06-19T07:43:32;10.60;;;3.63;;
42384;SDS011;28042;43.986;22.860;2023-06-19T07:45:58;9.45;;;3.45;;
42384;SDS011;28042;43.986;22.860;2023-06-19T07:48:24;7.40;;;3.35;;
42384;SDS011;28042;43.986;22.860;2023-06-19T07:50:49;6.95;;;3.45;;
42384;SDS011;28042;43.986;22.860;2023-06-19T07:53:15;5.80;;;3.17;;
42384;SDS011;28042;43.986;22.860;2023-06-19T07:55:41;7.03;;;4.18;;
42384;SDS011;28042;43.986;22.860;2023-06-19T07:58:06;6.65;;;3.22;;
42384;SDS011;28042;43.986;22.860;2023-06-19T08:00:32;4.32;;;3.35;;
42384;SDS011;28042;43.986;22.860;2023-06-19T08:02:58;5.68;;;3.58;;
42384;SDS011;28042;43.986;22.860;2023-06-19T08:05:23;10.45;;;3.80;;
42384;SDS011;28042;43.986;22.860;2023-06-19T08:07:48;4.65;;;3.58;;
42384;SDS011;28042;43.986;22.860;2023-06-19T08:10:14;5.80;;;3.92;;
42384;SDS011;28042;43.986;22.860;2023-06-19T08:12:43;6.60;;;3.17;;
42384;SDS011;28042;43.986;22.860;2023-06-19T08:15:09;8.20;;;3.53;;
42384;SDS011;28042;43.986;22.860;2023-06-19T08:17:35;8.77;;;3.37;;
42384;SDS011;28042;43.986;22.860;2023-06-19T08:20:01;9.52;;;3.10;;
42384;SDS011;28042;43.986;22.860;2023-06-19T08:22:28;6.55;;;3.53;;
42384;SDS011;28042;43.986;22.860;2023-06-19T08:24:54;8.52;;;3.97;;
42384;SDS011;28042;43.986;22.860;2023-06-19T08:27:19;17.85;;;4.35;;
42384;SDS011;28042;43.986;22.860;2023-06-19T08:29:44;4.70;;;3.47;;
42384;SDS011;28042;43.986;22.860;2023-06-19T08:32:10;4.95;;;3.40;;
42384;SDS011;28042;43.986;22.860;2023-06-19T08:34:35;7.78;;;3.78;;
42384;SDS011;28042;43.986;22.860;2023-06-19T08:37:03;6.53;;;3.60;;
42384;SDS011;28042;43.986;22.860;2023-06-19T08:39:29;11.15;;;3.83;;
42384;SDS011;28042;43.986;22.860;2023-06-19T08:41:56;17.02;;;4.57;;
42384;SDS011;28042;43.986;22.860;2023-06-19T08:44:21;8.13;;;3.35;;
42384;SDS011;28042;43.986;22.860;2023-06-19T08:46:47;8.23;;;3.42;;
42384;SDS011;28042;43.986;22.860;2023-06-19T08:49:12;18.80;;;4.82;;
42384;SDS011;28042;43.986;22.860;2023-06-19T08:51:39;7.38;;;3.15;;
42384;SDS011;28042;43.986;22.860;2023-06-19T08:54:05;8.35;;;3.45;;
42384;SDS011;28042;43.986;22.860;2023-06-19T08:56:32;6.27;;;3.53;;
42384;SDS011;28042;43.986;22.860;2023-06-19T08:59:12;6.60;;;3.00;;
42384;SDS011;28042;43.986;22.860;2023-06-19T09:01:39;11.27;;;3.88;;
42384;SDS011;28042;43.986;22.860;2023-06-19T09:04:09;6.72;;;3.10;;
42384;SDS011;28042;43.986;22.860;2023-06-19T09:06:36;6.65;;;3.50;;
42384;SDS011;28042;43.986;22.860;2023-06-19T09:09:12;21.67;;;4.03;;
42384;SDS011;28042;43.986;22.860;2023-06-19T09:11:39;9.60;;;3.65;;
42384;SDS011;28042;43.986;22.860;2023-06-19T09:14:08;10.73;;;3.15;;
42384;SDS011;28042;43.986;22.860;2023-06-19T09:16:40;5.85;;;3.13;;
42384;SDS011;28042;43.986;22.860;2023-06-19T09:19:06;18.65;;;3.85;;
42384;SDS011;28042;43.986;22.860;2023-06-19T09:21:35;4.80;;;3.08;;
42384;SDS011;28042;43.986;22.860;2023-06-19T09:24:08;8.73;;;3.50;;
42384;SDS011;28042;43.986;22.860;2023-06-19T09:26:34;5.80;;;3.13;;
42384;SDS011;28042;43.986;22.860;2023-06-19T09:29:18;18.95;;;4.20;;
42384;SDS011;28042;43.986;22.860;2023-06-19T09:31:44;8.52;;;4.03;;
42384;SDS011;28042;43.986;22.860;2023-06-19T09:34:09;6.38;;;3.50;;
42384;SDS011;28042;43.986;22.860;2023-06-19T09:36:35;9.50;;;4.05;;
42384;SDS011;28042;43.986;22.860;2023-06-19T09:39:04;5.07;;;3.33;;
42384;SDS011;28042;43.986;22.860;2023-06-19T09:41:30;11.45;;;3.40;;
42384;SDS011;28042;43.986;22.860;2023-06-19T09:43:56;18.80;;;3.80;;
42384;SDS011;28042;43.986;22.860;2023-06-19T09:46:31;8.07;;;3.55;;
42384;SDS011;28042;43.986;22.860;2023-06-19T09:49:01;5.10;;;3.30;;
42384;SDS011;28042;43.986;22.860;2023-06-19T09:51:31;6.35;;;3.50;;
42384;SDS011;28042;43.986;22.860;2023-06-19T09:54:01;7.75;;;3.75;;
42384;SDS011;28042;43.986;22.860;2023-06-19T09:56:29;9.43;;;3.25;;
42384;SDS011;28042;43.986;22.860;2023-06-19T09:58:56;8.57;;;3.40;;
42384;SDS011;28042;43.986;22.860;2023-06-19T10:01:29;6.72;;;2.95;;
42384;SDS011;28042;43.986;22.860;2023-06-19T10:04:06;6.80;;;3.38;;
42384;SDS011;28042;43.986;22.860;2023-06-19T10:06:45;7.82;;;3.42;;
42384;SDS011;28042;43.986;22.860;2023-06-19T10:09:13;7.28;;;3.92;;
42384;SDS011;28042;43.986;22.860;2023-06-19T10:11:52;6.47;;;3.30;;
42384;SDS011;28042;43.986;22.860;2023-06-19T10:14:21;6.40;;;3.58;;
42384;SDS011;28042;43.986;22.860;2023-06-19T10:16:47;8.93;;;3.70;;
42384;SDS011;28042;43.986;22.860;2023-06-19T10:19:16;7.55;;;3.40;;
42384;SDS011;28042;43.986;22.860;2023-06-19T10:21:49;9.75;;;3.50;;
42384;SDS011;28042;43.986;22.860;2023-06-19T10:24:18;11.65;;;3.88;;
42384;SDS011;28042;43.986;22.860;2023-06-19T10:26:55;6.18;;;3.35;;
42384;SDS011;28042;43.986;22.860;2023-06-19T10:29:22;6.05;;;3.67;;
42384;SDS011;28042;43.986;22.860;2023-06-19T10:31:48;10.95;;;3.70;;
42384;SDS011;28042;43.986;22.860;2023-06-19T10:34:15;12.97;;;3.80;;
42384;SDS011;28042;43.986;22.860;2023-06-19T10:36:40;8.95;;;3.65;;
42384;SDS011;28042;43.986;22.860;2023-06-19T10:39:06;12.90;;;4.05;;
42384;SDS011;28042;43.986;22.860;2023-06-19T10:41:32;14.18;;;4.05;;
42384;SDS011;28042;43.986;22.860;2023-06-19T10:46:33;9.23;;;3.83;;
42384;SDS011;28042;43.986;22.860;2023-06-19T10:49:01;16.55;;;4.00;;
42384;SDS011;28042;43.986;22.860;2023-06-19T10:51:29;5.38;;;3.40;;
42384;SDS011;28042;43.986;22.860;2023-06-19T10:53:56;21.58;;;4.70;;
42384;SDS011;28042;43.986;22.860;2023-06-19T10:56:22;5.30;;;3.30;;
42384;SDS011;28042;43.986;22.860;2023-06-19T11:01:45;6.80;;;3.72;;
42384;SDS011;28042;43.986;22.860;2023-06-19T11:04:12;6.95;;;3.72;;
42384;SDS011;28042;43.986;22.860;2023-06-19T11:06:40;4.78;;;3.13;;
42384;SDS011;28042;43.986;22.860;2023-06-19T11:09:07;7.25;;;3.40;;
42384;SDS011;28042;43.986;22.860;2023-06-19T11:11:54;14.80;;;3.85;;
42384;SDS011;28042;43.986;22.860;2023-06-19T11:14:19;13.55;;;3.78;;
42384;SDS011;28042;43.986;22.860;2023-06-19T11:16:46;6.13;;;3.42;;
42384;SDS011;28042;43.986;22.860;2023-06-19T11:19:19;4.22;;;3.10;;
42384;SDS011;28042;43.986;22.860;2023-06-19T11:21:46;9.75;;;4.10;;
42384;SDS011;28042;43.986;22.860;2023-06-19T11:24:14;7.53;;;3.78;;
42384;SDS011;28042;43.986;22.860;2023-06-19T11:26:41;5.35;;;3.80;;
42384;SDS011;28042;43.986;22.860;2023-06-19T11:29:16;8.52;;;4.00;;
42384;SDS011;28042;43.986;22.860;2023-06-19T11:31:45;5.10;;;3.70;;
42384;SDS011;28042;43.986;22.860;2023-06-19T11:34:12;5.72;;;3.30;;
42384;SDS011;28042;43.986;22.860;2023-06-19T11:36:38;21.10;;;4.22;;
42384;SDS011;28042;43.986;22.860;2023-06-19T11:39:10;9.32;;;3.75;;
42384;SDS011;28042;43.986;22.860;2023-06-19T11:41:38;6.50;;;3.58;;
42384;SDS011;28042;43.986;22.860;2023-06-19T11:44:05;8.25;;;3.13;;
42384;SDS011;28042;43.986;22.860;2023-06-19T11:46:32;6.70;;;3.35;;
42384;SDS011;28042;43.986;22.860;2023-06-19T11:51:57;7.82;;;3.67;;
42384;SDS011;28042;43.986;22.860;2023-06-19T11:54:23;10.30;;;4.03;;
42384;SDS011;28042;43.986;22.860;2023-06-19T11:56:48;7.07;;;3.90;;
42384;SDS011;28042;43.986;22.860;2023-06-19T11:59:14;10.05;;;4.20;;
42384;SDS011;28042;43.986;22.860;2023-06-19T12:01:39;8.75;;;4.75;;
42384;SDS011;28042;43.986;22.860;2023-06-19T12:04:05;5.47;;;4.30;;
42384;SDS011;28042;43.986;22.860;2023-06-19T12:06:31;6.43;;;3.67;;
42384;SDS011;28042;43.986;22.860;2023-06-19T12:08:57;8.73;;;3.67;;
42384;SDS011;28042;43.986;22.860;2023-06-19T12:11:22;14.90;;;3.83;;
42384;SDS011;28042;43.986;22.860;2023-06-19T12:13:48;7.60;;;3.58;;
42384;SDS011;28042;43.986;22.860;2023-06-19T12:16:14;9.90;;;3.80;;
42384;SDS011;28042;43.986;22.860;2023-06-19T12:18:40;5.28;;;3.97;;
42384;SDS011;28042;43.986;22.860;2023-06-19T12:21:05;6.55;;;3.70;;
42384;SDS011;28042;43.986;22.860;2023-06-19T12:23:31;9.98;;;3.72;;
42384;SDS011;28042;43.986;22.860;2023-06-19T12:25:57;5.68;;;3.72;;
42384;SDS011;28042;43.986;22.860;2023-06-19T12:28:23;6.53;;;4.05;;
42384;SDS011;28042;43.986;22.860;2023-06-19T12:30:48;5.95;;;3.60;;
42384;SDS011;28042;43.986;22.860;2023-06-19T12:33:18;9.65;;;3.67;;
42384;SDS011;28042;43.986;22.860;2023-06-19T12:35:44;6.15;;;3.97;;
42384;SDS011;28042;43.986;22.860;2023-06-19T12:38:10;5.45;;;3.92;;
42384;SDS011;28042;43.986;22.860;2023-06-19T12:40:36;21.20;;;4.88;;
42384;SDS011;28042;43.986;22.860;2023-06-19T12:43:02;8.75;;;4.40;;
42384;SDS011;28042;43.986;22.860;2023-06-19T12:45:28;5.00;;;3.92;;
42384;SDS011;28042;43.986;22.860;2023-06-19T12:47:53;11.27;;;4.05;;
42384;SDS011;28042;43.986;22.860;2023-06-19T12:50:19;8.27;;;4.13;;
42384;SDS011;28042;43.986;22.860;2023-06-19T12:52:44;5.00;;;3.65;;
42384;SDS011;28042;43.986;22.860;2023-06-19T12:55:10;7.38;;;3.72;;
42384;SDS011;28042;43.986;22.860;2023-06-19T12:57:36;6.72;;;4.40;;
42384;SDS011;28042;43.986;22.860;2023-06-19T13:00:01;8.50;;;3.90;;
42384;SDS011;28042;43.986;22.860;2023-06-19T13:02:29;12.23;;;4.30;;
42384;SDS011;28042;43.986;22.860;2023-06-19T13:04:54;9.32;;;3.72;;
42384;SDS011;28042;43.986;22.860;2023-06-19T13:07:20;8.05;;;3.63;;
42384;SDS011;28042;43.986;22.860;2023-06-19T13:09:45;13.88;;;4.35;;
42384;SDS011;28042;43.986;22.860;2023-06-19T13:12:11;6.68;;;3.75;;
42384;SDS011;28042;43.986;22.860;2023-06-19T13:14:36;5.35;;;3.78;;
42384;SDS011;28042;43.986;22.860;2023-06-19T13:17:03;7.50;;;3.63;;
42384;SDS011;28042;43.986;22.860;2023-06-19T13:19:28;11.77;;;4.20;;
42384;SDS011;28042;43.986;22.860;2023-06-19T13:21:53;9.73;;;4.32;;
42384;SDS011;28042;43.986;22.860;2023-06-19T13:24:19;7.25;;;3.55;;
42384;SDS011;28042;43.986;22.860;2023-06-19T13:26:45;11.02;;;4.10;;
42384;SDS011;28042;43.986;22.860;2023-06-19T13:29:11;11.15;;;4.15;;
42384;SDS011;28042;43.986;22.860;2023-06-19T13:31:36;8.00;;;3.88;;
42384;SDS011;28042;43.986;22.860;2023-06-19T13:34:02;5.97;;;3.85;;
42384;SDS011;28042;43.986;22.860;2023-06-19T13:36:28;9.80;;;4.03;;
42384;SDS011;28042;43.986;22.860;2023-06-19T13:38:54;11.25;;;4.22;;
42384;SDS011;28042;43.986;22.860;2023-06-19T13:41:20;7.53;;;3.67;;
42384;SDS011;28042;43.986;22.860;2023-06-19T13:43:49;7.80;;;4.07;;
42384;SDS011;28042;43.986;22.860;2023-06-19T13:46:15;12.65;;;4.20;;
42384;SDS011;28042;43.986;22.860;2023-06-19T13:48:41;8.50;;;4.15;;
42384;SDS011;28042;43.986;22.860;2023-06-19T13:51:07;10.57;;;4.75;;
42384;SDS011;28042;43.986;22.860;2023-06-19T13:53:32;10.23;;;4.15;;
42384;SDS011;28042;43.986;22.860;2023-06-19T13:55:58;6.88;;;3.70;;
42384;SDS011;28042;43.986;22.860;2023-06-19T13:58:23;4.32;;;3.42;;
42384;SDS011;28042;43.986;22.860;2023-06-19T14:00:49;8.07;;;3.90;;
42384;SDS011;28042;43.986;22.860;2023-06-19T14:03:15;6.40;;;4.15;;
42384;SDS011;28042;43.986;22.860;2023-06-19T14:05:41;6.85;;;3.85;;
42384;SDS011;28042;43.986;22.860;2023-06-19T14:08:06;8.38;;;3.65;;
42384;SDS011;28042;43.986;22.860;2023-06-19T14:10:32;12.15;;;4.93;;
42384;SDS011;28042;43.986;22.860;2023-06-19T14:12:57;9.40;;;4.72;;
42384;SDS011;28042;43.986;22.860;2023-06-19T14:15:23;9.48;;;4.10;;
42384;SDS011;28042;43.986;22.860;2023-06-19T14:17:48;11.00;;;4.68;;
42384;SDS011;28042;43.986;22.860;2023-06-19T14:20:14;15.18;;;4.85;;
42384;SDS011;28042;43.986;22.860;2023-06-19T14:22:39;8.45;;;3.92;;
42384;SDS011;28042;43.986;22.860;2023-06-19T14:25:05;9.77;;;3.97;;
42384;SDS011;28042;43.986;22.860;2023-06-19T14:27:30;9.77;;;4.30;;
42384;SDS011;28042;43.986;22.860;2023-06-19T14:29:56;6.57;;;3.65;;
42384;SDS011;28042;43.986;22.860;2023-06-19T14:32:22;20.92;;;5.57;;
42384;SDS011;28042;43.986;22.860;2023-06-19T14:34:50;7.82;;;3.90;;
42384;SDS011;28042;43.986;22.860;2023-06-19T14:37:16;7.03;;;3.97;;
42384;SDS011;28042;43.986;22.860;2023-06-19T14:39:42;6.43;;;3.85;;
42384;SDS011;28042;43.986;22.860;2023-06-19T14:42:08;7.25;;;4.47;;
42384;SDS011;28042;43.986;22.860;2023-06-19T14:44:34;9.23;;;3.90;;